sensor_id;sensor_type;location;lat;lon;timestamp;P1;durP1;ratioP1;P2;durP2;ratioP2
25351;SDS011;13304;48.464;8.712;2023-02-28T00:01:11;7.30;;;2.83;;
25351;SDS011;13304;48.464;8.712;2023-02-28T00:03:37;4.93;;;2.73;;
25351;SDS011;13304;48.464;8.712;2023-02-28T00:06:03;5.40;;;2.70;;
25351;SDS011;13304;48.464;8.712;2023-02-28T00:08:30;5.23;;;2.70;;
25351;SDS011;13304;48.464;8.712;2023-02-28T00:11:00;4.90;;;2.40;;
25351;SDS011;13304;48.464;8.712;2023-02-28T00:13:30;5.00;;;2.80;;
25351;SDS011;13304;48.464;8.712;2023-02-28T00:16:02;6.87;;;2.87;;
25351;SDS011;13304;48.464;8.712;2023-02-28T00:18:39;5.93;;;2.83;;
25351;SDS011;13304;48.464;8.712;2023-02-28T00:21:06;8.77;;;2.60;;
25351;SDS011;13304;48.464;8.712;2023-02-28T00:23:32;6.90;;;2.27;;
25351;SDS011;13304;48.464;8.712;2023-02-28T00:25:58;4.43;;;2.60;;
25351;SDS011;13304;48.464;8.712;2023-02-28T00:28:24;10.03;;;2.40;;
25351;SDS011;13304;48.464;8.712;2023-02-28T00:30:50;5.57;;;2.63;;
25351;SDS011;13304;48.464;8.712;2023-02-28T00:33:16;4.77;;;2.57;;
25351;SDS011;13304;48.464;8.712;2023-02-28T00:35:42;6.23;;;2.73;;
25351;SDS011;13304;48.464;8.712;2023-02-28T00:38:11;6.20;;;2.78;;
25351;SDS011;13304;48.464;8.712;2023-02-28T00:40:37;7.17;;;2.67;;
25351;SDS011;13304;48.464;8.712;2023-02-28T00:43:03;5.53;;;2.87;;
25351;SDS011;13304;48.464;8.712;2023-02-28T00:45:29;5.03;;;2.57;;
25351;SDS011;13304;48.464;8.712;2023-02-28T00:47:55;4.90;;;2.50;;
25351;SDS011;13304;48.464;8.712;2023-02-28T00:50:20;7.47;;;2.87;;
25351;SDS011;13304;48.464;8.712;2023-02-28T00:52:46;7.23;;;2.87;;
25351;SDS011;13304;48.464;8.712;2023-02-28T00:55:13;4.97;;;2.60;;
25351;SDS011;13304;48.464;8.712;2023-02-28T00:57:39;7.17;;;2.70;;
25351;SDS011;13304;48.464;8.712;2023-02-28T01:00:06;7.63;;;3.00;;
25351;SDS011;13304;48.464;8.712;2023-02-28T01:02:32;5.83;;;2.80;;
25351;SDS011;13304;48.464;8.712;2023-02-28T01:04:58;8.90;;;2.93;;
25351;SDS011;13304;48.464;8.712;2023-02-28T01:07:24;6.83;;;3.00;;
25351;SDS011;13304;48.464;8.712;2023-02-28T01:09:50;6.27;;;3.00;;
25351;SDS011;13304;48.464;8.712;2023-02-28T01:12:15;6.23;;;2.53;;
25351;SDS011;13304;48.464;8.712;2023-02-28T01:14:41;4.53;;;2.33;;
25351;SDS011;13304;48.464;8.712;2023-02-28T01:17:07;5.63;;;2.80;;
25351;SDS011;13304;48.464;8.712;2023-02-28T01:19:34;6.97;;;2.97;;
25351;SDS011;13304;48.464;8.712;2023-02-28T01:22:04;6.60;;;2.97;;
25351;SDS011;13304;48.464;8.712;2023-02-28T01:24:31;5.83;;;2.47;;
25351;SDS011;13304;48.464;8.712;2023-02-28T01:26:58;4.83;;;2.60;;
25351;SDS011;13304;48.464;8.712;2023-02-28T01:29:24;6.63;;;2.50;;
25351;SDS011;13304;48.464;8.712;2023-02-28T01:31:50;7.00;;;2.83;;
25351;SDS011;13304;48.464;8.712;2023-02-28T01:34:16;6.70;;;2.43;;
25351;SDS011;13304;48.464;8.712;2023-02-28T01:36:44;6.07;;;2.67;;
25351;SDS011;13304;48.464;8.712;2023-02-28T01:39:09;6.80;;;3.03;;
25351;SDS011;13304;48.464;8.712;2023-02-28T01:41:35;6.07;;;2.63;;
25351;SDS011;13304;48.464;8.712;2023-02-28T01:44:05;5.33;;;2.80;;
25351;SDS011;13304;48.464;8.712;2023-02-28T01:46:33;6.07;;;2.80;;
25351;SDS011;13304;48.464;8.712;2023-02-28T01:49:11;7.50;;;2.90;;
25351;SDS011;13304;48.464;8.712;2023-02-28T01:51:44;6.57;;;2.77;;
25351;SDS011;13304;48.464;8.712;2023-02-28T01:54:16;6.67;;;2.90;;
25351;SDS011;13304;48.464;8.712;2023-02-28T01:56:48;11.17;;;2.60;;
25351;SDS011;13304;48.464;8.712;2023-02-28T01:59:41;6.67;;;2.83;;
25351;SDS011;13304;48.464;8.712;2023-02-28T02:02:11;7.63;;;3.00;;
25351;SDS011;13304;48.464;8.712;2023-02-28T02:05:00;7.87;;;2.90;;
25351;SDS011;13304;48.464;8.712;2023-02-28T02:07:36;7.13;;;2.77;;
25351;SDS011;13304;48.464;8.712;2023-02-28T02:10:12;10.70;;;3.00;;
25351;SDS011;13304;48.464;8.712;2023-02-28T02:12:52;8.43;;;2.80;;
25351;SDS011;13304;48.464;8.712;2023-02-28T02:15:40;5.83;;;2.50;;
25351;SDS011;13304;48.464;8.712;2023-02-28T02:24:31;8.37;;;2.93;;
25351;SDS011;13304;48.464;8.712;2023-02-28T02:34:41;10.80;;;2.92;;
25351;SDS011;13304;48.464;8.712;2023-02-28T02:37:34;4.82;;;2.88;;
25351;SDS011;13304;48.464;8.712;2023-02-28T02:40:23;6.77;;;3.20;;
25351;SDS011;13304;48.464;8.712;2023-02-28T02:42:56;6.57;;;3.30;;
25351;SDS011;13304;48.464;8.712;2023-02-28T02:45:28;10.70;;;4.87;;
25351;SDS011;13304;48.464;8.712;2023-02-28T02:48:05;7.47;;;3.10;;
25351;SDS011;13304;48.464;8.712;2023-02-28T02:50:38;8.20;;;3.67;;
25351;SDS011;13304;48.464;8.712;2023-02-28T02:53:08;7.73;;;3.30;;
25351;SDS011;13304;48.464;8.712;2023-02-28T02:55:37;5.20;;;2.83;;
25351;SDS011;13304;48.464;8.712;2023-02-28T02:58:08;7.97;;;3.33;;
25351;SDS011;13304;48.464;8.712;2023-02-28T03:00:39;5.60;;;2.97;;
25351;SDS011;13304;48.464;8.712;2023-02-28T03:03:08;6.57;;;3.10;;
25351;SDS011;13304;48.464;8.712;2023-02-28T03:05:46;6.40;;;3.20;;
25351;SDS011;13304;48.464;8.712;2023-02-28T03:08:15;9.07;;;3.60;;
25351;SDS011;13304;48.464;8.712;2023-02-28T03:10:43;7.00;;;3.20;;
25351;SDS011;13304;48.464;8.712;2023-02-28T03:27:21;10.53;;;3.33;;
25351;SDS011;13304;48.464;8.712;2023-02-28T03:30:03;8.10;;;3.83;;
25351;SDS011;13304;48.464;8.712;2023-02-28T03:32:35;6.97;;;3.43;;
25351;SDS011;13304;48.464;8.712;2023-02-28T03:37:39;7.60;;;3.10;;
25351;SDS011;13304;48.464;8.712;2023-02-28T03:40:12;6.63;;;3.55;;
25351;SDS011;13304;48.464;8.712;2023-02-28T03:42:43;8.20;;;3.67;;
25351;SDS011;13304;48.464;8.712;2023-02-28T03:47:41;7.00;;;3.50;;
25351;SDS011;13304;48.464;8.712;2023-02-28T03:50:38;7.13;;;3.93;;
25351;SDS011;13304;48.464;8.712;2023-02-28T03:53:14;7.23;;;3.53;;
25351;SDS011;13304;48.464;8.712;2023-02-28T04:01:20;9.52;;;3.97;;
25351;SDS011;13304;48.464;8.712;2023-02-28T04:03:50;6.67;;;3.70;;
25351;SDS011;13304;48.464;8.712;2023-02-28T04:06:20;8.00;;;4.33;;
25351;SDS011;13304;48.464;8.712;2023-02-28T04:08:47;6.87;;;3.80;;
25351;SDS011;13304;48.464;8.712;2023-02-28T04:11:56;7.80;;;3.83;;
25351;SDS011;13304;48.464;8.712;2023-02-28T04:14:07;7.37;;;4.00;;
25351;SDS011;13304;48.464;8.712;2023-02-28T04:16:35;7.97;;;3.97;;
25351;SDS011;13304;48.464;8.712;2023-02-28T04:19:03;9.27;;;4.07;;
25351;SDS011;13304;48.464;8.712;2023-02-28T04:21:33;9.93;;;4.17;;
25351;SDS011;13304;48.464;8.712;2023-02-28T04:24:10;11.83;;;4.40;;
25351;SDS011;13304;48.464;8.712;2023-02-28T04:26:42;6.43;;;3.97;;
25351;SDS011;13304;48.464;8.712;2023-02-28T04:29:10;8.18;;;4.13;;
25351;SDS011;13304;48.464;8.712;2023-02-28T04:31:37;7.67;;;4.67;;
25351;SDS011;13304;48.464;8.712;2023-02-28T04:34:03;9.73;;;4.30;;
25351;SDS011;13304;48.464;8.712;2023-02-28T04:36:29;9.43;;;4.50;;
25351;SDS011;13304;48.464;8.712;2023-02-28T04:38:57;6.83;;;4.10;;
25351;SDS011;13304;48.464;8.712;2023-02-28T04:41:24;8.67;;;4.43;;
25351;SDS011;13304;48.464;8.712;2023-02-28T04:43:51;10.77;;;4.93;;
25351;SDS011;13304;48.464;8.712;2023-02-28T04:46:17;6.47;;;4.33;;
25351;SDS011;13304;48.464;8.712;2023-02-28T04:48:45;9.90;;;4.20;;
25351;SDS011;13304;48.464;8.712;2023-02-28T04:51:11;9.70;;;4.27;;
25351;SDS011;13304;48.464;8.712;2023-02-28T04:53:38;11.90;;;4.83;;
25351;SDS011;13304;48.464;8.712;2023-02-28T04:56:06;10.70;;;5.03;;
25351;SDS011;13304;48.464;8.712;2023-02-28T04:58:33;12.23;;;5.00;;
25351;SDS011;13304;48.464;8.712;2023-02-28T05:01:03;9.10;;;4.97;;
25351;SDS011;13304;48.464;8.712;2023-02-28T05:03:37;12.70;;;5.17;;
25351;SDS011;13304;48.464;8.712;2023-02-28T05:06:06;12.30;;;5.00;;
25351;SDS011;13304;48.464;8.712;2023-02-28T05:08:32;9.10;;;4.87;;
25351;SDS011;13304;48.464;8.712;2023-02-28T05:10:58;9.50;;;5.07;;
25351;SDS011;13304;48.464;8.712;2023-02-28T05:13:26;11.07;;;5.40;;
25351;SDS011;13304;48.464;8.712;2023-02-28T05:15:52;10.93;;;5.40;;
25351;SDS011;13304;48.464;8.712;2023-02-28T05:18:18;9.07;;;4.77;;
25351;SDS011;13304;48.464;8.712;2023-02-28T05:20:44;8.83;;;5.10;;
25351;SDS011;13304;48.464;8.712;2023-02-28T05:23:13;11.57;;;5.47;;
25351;SDS011;13304;48.464;8.712;2023-02-28T05:25:40;11.43;;;6.47;;
25351;SDS011;13304;48.464;8.712;2023-02-28T05:28:06;9.73;;;5.03;;
25351;SDS011;13304;48.464;8.712;2023-02-28T05:30:33;8.30;;;5.53;;
25351;SDS011;13304;48.464;8.712;2023-02-28T05:32:58;12.67;;;5.60;;
25351;SDS011;13304;48.464;8.712;2023-02-28T05:35:25;12.23;;;5.97;;
25351;SDS011;13304;48.464;8.712;2023-02-28T05:37:51;8.50;;;5.07;;
25351;SDS011;13304;48.464;8.712;2023-02-28T05:40:17;11.73;;;5.70;;
25351;SDS011;13304;48.464;8.712;2023-02-28T05:42:44;19.60;;;6.80;;
25351;SDS011;13304;48.464;8.712;2023-02-28T05:45:10;35.40;;;23.57;;
25351;SDS011;13304;48.464;8.712;2023-02-28T05:47:36;11.17;;;6.30;;
25351;SDS011;13304;48.464;8.712;2023-02-28T05:50:02;10.83;;;6.20;;
25351;SDS011;13304;48.464;8.712;2023-02-28T05:52:28;11.83;;;5.83;;
25351;SDS011;13304;48.464;8.712;2023-02-28T05:54:57;11.17;;;6.27;;
25351;SDS011;13304;48.464;8.712;2023-02-28T05:57:23;11.93;;;6.23;;
25351;SDS011;13304;48.464;8.712;2023-02-28T05:59:49;17.83;;;9.80;;
25351;SDS011;13304;48.464;8.712;2023-02-28T06:02:15;11.40;;;7.03;;
25351;SDS011;13304;48.464;8.712;2023-02-28T06:04:42;10.13;;;6.40;;
25351;SDS011;13304;48.464;8.712;2023-02-28T06:07:09;16.10;;;7.97;;
25351;SDS011;13304;48.464;8.712;2023-02-28T06:09:35;19.00;;;8.60;;
25351;SDS011;13304;48.464;8.712;2023-02-28T06:12:02;15.10;;;8.77;;
25351;SDS011;13304;48.464;8.712;2023-02-28T06:14:31;12.50;;;6.65;;
25351;SDS011;13304;48.464;8.712;2023-02-28T06:16:57;14.83;;;7.33;;
25351;SDS011;13304;48.464;8.712;2023-02-28T06:19:24;14.07;;;7.13;;
25351;SDS011;13304;48.464;8.712;2023-02-28T06:21:51;10.47;;;6.40;;
25351;SDS011;13304;48.464;8.712;2023-02-28T06:24:18;13.27;;;7.83;;
25351;SDS011;13304;48.464;8.712;2023-02-28T06:26:45;12.93;;;7.53;;
25351;SDS011;13304;48.464;8.712;2023-02-28T06:29:11;17.20;;;8.20;;
25351;SDS011;13304;48.464;8.712;2023-02-28T06:31:37;12.27;;;7.67;;
25351;SDS011;13304;48.464;8.712;2023-02-28T06:34:03;12.57;;;7.10;;
25351;SDS011;13304;48.464;8.712;2023-02-28T06:36:29;12.40;;;7.20;;
25351;SDS011;13304;48.464;8.712;2023-02-28T06:38:55;14.47;;;7.40;;
25351;SDS011;13304;48.464;8.712;2023-02-28T06:41:24;12.67;;;6.93;;
25351;SDS011;13304;48.464;8.712;2023-02-28T06:43:51;14.33;;;7.27;;
25351;SDS011;13304;48.464;8.712;2023-02-28T06:46:17;15.57;;;7.10;;
25351;SDS011;13304;48.464;8.712;2023-02-28T06:48:44;15.43;;;6.80;;
25351;SDS011;13304;48.464;8.712;2023-02-28T06:51:17;13.37;;;7.33;;
25351;SDS011;13304;48.464;8.712;2023-02-28T06:53:49;11.20;;;6.60;;
25351;SDS011;13304;48.464;8.712;2023-02-28T06:56:16;10.60;;;6.73;;
25351;SDS011;13304;48.464;8.712;2023-02-28T06:58:45;14.63;;;7.50;;
25351;SDS011;13304;48.464;8.712;2023-02-28T07:01:13;13.23;;;7.37;;
25351;SDS011;13304;48.464;8.712;2023-02-28T07:03:39;14.63;;;7.77;;
25351;SDS011;13304;48.464;8.712;2023-02-28T07:06:05;13.23;;;7.13;;
25351;SDS011;13304;48.464;8.712;2023-02-28T07:08:32;13.20;;;7.83;;
25351;SDS011;13304;48.464;8.712;2023-02-28T07:10:58;14.83;;;7.77;;
25351;SDS011;13304;48.464;8.712;2023-02-28T07:13:24;15.17;;;7.97;;
25351;SDS011;13304;48.464;8.712;2023-02-28T07:15:58;16.27;;;7.83;;
25351;SDS011;13304;48.464;8.712;2023-02-28T07:18:28;14.80;;;7.90;;
25351;SDS011;13304;48.464;8.712;2023-02-28T07:20:54;15.67;;;8.17;;
25351;SDS011;13304;48.464;8.712;2023-02-28T07:23:20;18.33;;;7.80;;
25351;SDS011;13304;48.464;8.712;2023-02-28T07:25:47;13.40;;;7.33;;
25351;SDS011;13304;48.464;8.712;2023-02-28T07:28:14;14.07;;;7.63;;
25351;SDS011;13304;48.464;8.712;2023-02-28T07:30:40;14.00;;;8.13;;
25351;SDS011;13304;48.464;8.712;2023-02-28T07:33:06;13.77;;;8.00;;
25351;SDS011;13304;48.464;8.712;2023-02-28T07:35:32;19.47;;;8.13;;
25351;SDS011;13304;48.464;8.712;2023-02-28T07:37:58;18.27;;;8.70;;
25351;SDS011;13304;48.464;8.712;2023-02-28T07:40:25;12.93;;;7.67;;
25351;SDS011;13304;48.464;8.712;2023-02-28T07:42:51;13.73;;;7.23;;
25351;SDS011;13304;48.464;8.712;2023-02-28T07:45:17;14.00;;;7.90;;
25351;SDS011;13304;48.464;8.712;2023-02-28T07:47:44;14.47;;;8.37;;
25351;SDS011;13304;48.464;8.712;2023-02-28T07:50:11;13.63;;;7.97;;
25351;SDS011;13304;48.464;8.712;2023-02-28T07:52:38;14.03;;;8.23;;
25351;SDS011;13304;48.464;8.712;2023-02-28T07:55:04;13.13;;;7.57;;
25351;SDS011;13304;48.464;8.712;2023-02-28T07:57:31;16.80;;;7.80;;
25351;SDS011;13304;48.464;8.712;2023-02-28T07:59:57;14.00;;;7.37;;
25351;SDS011;13304;48.464;8.712;2023-02-28T08:02:23;16.83;;;8.03;;
25351;SDS011;13304;48.464;8.712;2023-02-28T08:04:49;18.40;;;8.77;;
25351;SDS011;13304;48.464;8.712;2023-02-28T08:07:16;17.40;;;8.37;;
25351;SDS011;13304;48.464;8.712;2023-02-28T08:09:43;13.77;;;8.37;;
25351;SDS011;13304;48.464;8.712;2023-02-28T08:12:09;14.53;;;8.40;;
25351;SDS011;13304;48.464;8.712;2023-02-28T08:14:36;15.73;;;8.33;;
25351;SDS011;13304;48.464;8.712;2023-02-28T08:17:02;16.83;;;8.50;;
25351;SDS011;13304;48.464;8.712;2023-02-28T08:19:29;16.60;;;8.70;;
25351;SDS011;13304;48.464;8.712;2023-02-28T08:21:55;13.33;;;8.13;;
25351;SDS011;13304;48.464;8.712;2023-02-28T08:24:21;16.60;;;9.23;;
25351;SDS011;13304;48.464;8.712;2023-02-28T08:26:47;14.43;;;8.17;;
25351;SDS011;13304;48.464;8.712;2023-02-28T08:29:13;16.43;;;8.03;;
25351;SDS011;13304;48.464;8.712;2023-02-28T08:31:39;12.57;;;7.87;;
25351;SDS011;13304;48.464;8.712;2023-02-28T08:34:08;14.17;;;8.10;;
25351;SDS011;13304;48.464;8.712;2023-02-28T08:36:36;14.40;;;8.57;;
25351;SDS011;13304;48.464;8.712;2023-02-28T08:39:02;21.67;;;9.90;;
25351;SDS011;13304;48.464;8.712;2023-02-28T08:41:28;24.23;;;11.17;;
25351;SDS011;13304;48.464;8.712;2023-02-28T08:43:54;19.17;;;10.33;;
25351;SDS011;13304;48.464;8.712;2023-02-28T08:46:20;17.53;;;9.63;;
25351;SDS011;13304;48.464;8.712;2023-02-28T08:48:46;16.40;;;9.10;;
25351;SDS011;13304;48.464;8.712;2023-02-28T08:51:16;17.67;;;9.07;;
25351;SDS011;13304;48.464;8.712;2023-02-28T08:53:46;12.87;;;8.63;;
25351;SDS011;13304;48.464;8.712;2023-02-28T08:56:15;14.53;;;8.10;;
25351;SDS011;13304;48.464;8.712;2023-02-28T08:58:44;17.20;;;9.50;;
25351;SDS011;13304;48.464;8.712;2023-02-28T09:01:15;16.27;;;9.20;;
25351;SDS011;13304;48.464;8.712;2023-02-28T09:03:43;15.53;;;8.80;;
25351;SDS011;13304;48.464;8.712;2023-02-28T09:06:13;15.87;;;8.77;;
25351;SDS011;13304;48.464;8.712;2023-02-28T09:08:39;18.53;;;9.20;;
25351;SDS011;13304;48.464;8.712;2023-02-28T09:11:05;21.30;;;9.93;;
25351;SDS011;13304;48.464;8.712;2023-02-28T09:13:31;16.57;;;8.90;;
25351;SDS011;13304;48.464;8.712;2023-02-28T09:15:58;13.57;;;8.73;;
25351;SDS011;13304;48.464;8.712;2023-02-28T09:18:25;14.77;;;9.27;;
25351;SDS011;13304;48.464;8.712;2023-02-28T09:20:51;17.30;;;9.17;;
25351;SDS011;13304;48.464;8.712;2023-02-28T09:23:18;15.40;;;9.30;;
25351;SDS011;13304;48.464;8.712;2023-02-28T09:25:47;17.50;;;9.80;;
25351;SDS011;13304;48.464;8.712;2023-02-28T09:28:15;19.03;;;9.73;;
25351;SDS011;13304;48.464;8.712;2023-02-28T09:30:42;16.80;;;10.13;;
25351;SDS011;13304;48.464;8.712;2023-02-28T09:33:10;17.17;;;9.43;;
25351;SDS011;13304;48.464;8.712;2023-02-28T09:35:36;17.43;;;9.70;;
25351;SDS011;13304;48.464;8.712;2023-02-28T09:38:02;18.37;;;10.20;;
25351;SDS011;13304;48.464;8.712;2023-02-28T09:40:29;14.83;;;9.53;;
25351;SDS011;13304;48.464;8.712;2023-02-28T09:42:56;16.53;;;9.70;;
25351;SDS011;13304;48.464;8.712;2023-02-28T09:47:58;19.20;;;10.00;;
25351;SDS011;13304;48.464;8.712;2023-02-28T09:51:01;19.40;;;9.67;;
25351;SDS011;13304;48.464;8.712;2023-02-28T09:53:32;18.83;;;10.93;;
25351;SDS011;13304;48.464;8.712;2023-02-28T09:56:04;19.35;;;10.50;;
25351;SDS011;13304;48.464;8.712;2023-02-28T09:58:47;20.33;;;12.87;;
25351;SDS011;13304;48.464;8.712;2023-02-28T10:01:25;19.80;;;10.40;;
25351;SDS011;13304;48.464;8.712;2023-02-28T10:04:05;19.93;;;11.73;;
25351;SDS011;13304;48.464;8.712;2023-02-28T10:06:58;17.37;;;10.47;;
25351;SDS011;13304;48.464;8.712;2023-02-28T10:09:29;18.17;;;10.30;;
25351;SDS011;13304;48.464;8.712;2023-02-28T10:12:00;15.53;;;10.40;;
25351;SDS011;13304;48.464;8.712;2023-02-28T10:14:30;20.27;;;10.23;;
25351;SDS011;13304;48.464;8.712;2023-02-28T10:17:02;23.35;;;10.82;;
25351;SDS011;13304;48.464;8.712;2023-02-28T10:19:43;18.67;;;10.87;;
25351;SDS011;13304;48.464;8.712;2023-02-28T10:22:38;19.37;;;10.07;;
25351;SDS011;13304;48.464;8.712;2023-02-28T10:25:16;19.20;;;10.77;;
25351;SDS011;13304;48.464;8.712;2023-02-28T10:28:05;17.97;;;10.57;;
25351;SDS011;13304;48.464;8.712;2023-02-28T10:30:40;17.93;;;10.97;;
25351;SDS011;13304;48.464;8.712;2023-02-28T10:33:15;15.80;;;10.40;;
25351;SDS011;13304;48.464;8.712;2023-02-28T10:35:43;17.53;;;9.90;;
25351;SDS011;13304;48.464;8.712;2023-02-28T10:38:14;13.93;;;10.00;;
25351;SDS011;13304;48.464;8.712;2023-02-28T10:40:42;23.40;;;11.07;;
25351;SDS011;13304;48.464;8.712;2023-02-28T10:46:01;21.13;;;10.27;;
25351;SDS011;13304;48.464;8.712;2023-02-28T10:48:32;15.67;;;10.00;;
25351;SDS011;13304;48.464;8.712;2023-02-28T10:51:14;16.60;;;10.23;;
25351;SDS011;13304;48.464;8.712;2023-02-28T10:56:14;17.27;;;9.43;;
25351;SDS011;13304;48.464;8.712;2023-02-28T11:04:33;18.23;;;10.67;;
25351;SDS011;13304;48.464;8.712;2023-02-28T11:07:27;17.90;;;10.10;;
25351;SDS011;13304;48.464;8.712;2023-02-28T11:09:53;16.40;;;9.93;;
25351;SDS011;13304;48.464;8.712;2023-02-28T11:12:37;25.30;;;9.65;;
25351;SDS011;13304;48.464;8.712;2023-02-28T11:17:59;18.73;;;10.17;;
25351;SDS011;13304;48.464;8.712;2023-02-28T11:20:31;15.17;;;9.83;;
25351;SDS011;13304;48.464;8.712;2023-02-28T11:22:58;18.00;;;10.00;;
25351;SDS011;13304;48.464;8.712;2023-02-28T11:25:29;15.77;;;10.03;;
25351;SDS011;13304;48.464;8.712;2023-02-28T11:28:04;18.65;;;10.60;;
25351;SDS011;13304;48.464;8.712;2023-02-28T11:33:00;19.13;;;9.98;;
25351;SDS011;13304;48.464;8.712;2023-02-28T11:35:46;18.67;;;10.17;;
25351;SDS011;13304;48.464;8.712;2023-02-28T11:38:14;20.37;;;10.70;;
25351;SDS011;13304;48.464;8.712;2023-02-28T11:48:55;14.87;;;9.70;;
25351;SDS011;13304;48.464;8.712;2023-02-28T11:52:05;17.87;;;10.57;;
25351;SDS011;13304;48.464;8.712;2023-02-28T11:57:16;17.97;;;9.70;;
25351;SDS011;13304;48.464;8.712;2023-02-28T12:06:04;15.80;;;10.57;;
25351;SDS011;13304;48.464;8.712;2023-02-28T12:12:03;18.20;;;10.20;;
25351;SDS011;13304;48.464;8.712;2023-02-28T12:20:33;16.20;;;9.63;;
25351;SDS011;13304;48.464;8.712;2023-02-28T12:28:13;15.10;;;9.57;;
25351;SDS011;13304;48.464;8.712;2023-02-28T12:33:20;18.27;;;10.77;;
25351;SDS011;13304;48.464;8.712;2023-02-28T12:35:55;19.27;;;10.85;;
25351;SDS011;13304;48.464;8.712;2023-02-28T12:38:27;16.73;;;10.00;;
25351;SDS011;13304;48.464;8.712;2023-02-28T12:47:19;18.55;;;10.27;;
25351;SDS011;13304;48.464;8.712;2023-02-28T12:50:05;18.58;;;9.90;;
25351;SDS011;13304;48.464;8.712;2023-02-28T12:52:47;20.88;;;11.40;;
25351;SDS011;13304;48.464;8.712;2023-02-28T12:55:40;18.20;;;10.25;;
25351;SDS011;13304;48.464;8.712;2023-02-28T13:09:13;16.88;;;9.95;;
25351;SDS011;13304;48.464;8.712;2023-02-28T13:14:28;16.45;;;10.45;;
25351;SDS011;13304;48.464;8.712;2023-02-28T13:20:20;16.10;;;9.40;;
25351;SDS011;13304;48.464;8.712;2023-02-28T13:25:49;16.20;;;10.15;;
25351;SDS011;13304;48.464;8.712;2023-02-28T13:28:13;15.73;;;9.53;;
25351;SDS011;13304;48.464;8.712;2023-02-28T13:31:14;31.45;;;11.18;;
25351;SDS011;13304;48.464;8.712;2023-02-28T13:38:44;21.23;;;10.98;;
25351;SDS011;13304;48.464;8.712;2023-02-28T13:51:54;21.38;;;11.20;;
25351;SDS011;13304;48.464;8.712;2023-02-28T13:57:37;16.90;;;10.40;;
25351;SDS011;13304;48.464;8.712;2023-02-28T14:05:20;21.08;;;10.55;;
25351;SDS011;13304;48.464;8.712;2023-02-28T14:07:52;20.27;;;10.30;;
25351;SDS011;13304;48.464;8.712;2023-02-28T14:10:31;17.38;;;10.55;;
25351;SDS011;13304;48.464;8.712;2023-02-28T14:13:13;16.90;;;10.65;;
25351;SDS011;13304;48.464;8.712;2023-02-28T14:16:01;18.33;;;10.43;;
25351;SDS011;13304;48.464;8.712;2023-02-28T14:18:30;16.35;;;10.85;;
25351;SDS011;13304;48.464;8.712;2023-02-28T14:20:59;17.15;;;9.85;;
25351;SDS011;13304;48.464;8.712;2023-02-28T14:26:25;25.10;;;14.23;;
25351;SDS011;13304;48.464;8.712;2023-02-28T14:29:36;18.75;;;10.30;;
25351;SDS011;13304;48.464;8.712;2023-02-28T14:32:13;15.07;;;9.68;;
25351;SDS011;13304;48.464;8.712;2023-02-28T14:37:42;23.70;;;12.80;;
25351;SDS011;13304;48.464;8.712;2023-02-28T14:40:15;20.73;;;12.25;;
25351;SDS011;13304;48.464;8.712;2023-02-28T14:42:55;22.25;;;12.52;;
25351;SDS011;13304;48.464;8.712;2023-02-28T14:45:22;17.13;;;10.95;;
25351;SDS011;13304;48.464;8.712;2023-02-28T14:47:49;15.82;;;10.32;;
25351;SDS011;13304;48.464;8.712;2023-02-28T14:50:26;24.42;;;10.45;;
25351;SDS011;13304;48.464;8.712;2023-02-28T14:53:10;16.13;;;10.52;;
25351;SDS011;13304;48.464;8.712;2023-02-28T14:55:47;17.80;;;10.65;;
25351;SDS011;13304;48.464;8.712;2023-02-28T15:01:18;16.65;;;10.50;;
25351;SDS011;13304;48.464;8.712;2023-02-28T15:03:47;17.58;;;9.77;;
25351;SDS011;13304;48.464;8.712;2023-02-28T15:08:43;20.25;;;10.10;;
25351;SDS011;13304;48.464;8.712;2023-02-28T15:13:40;18.92;;;10.77;;
25351;SDS011;13304;48.464;8.712;2023-02-28T15:18:50;19.77;;;10.52;;
25351;SDS011;13304;48.464;8.712;2023-02-28T15:21:44;15.82;;;10.75;;
25351;SDS011;13304;48.464;8.712;2023-02-28T15:24:25;17.55;;;11.02;;
25351;SDS011;13304;48.464;8.712;2023-02-28T15:27:15;18.35;;;10.70;;
25351;SDS011;13304;48.464;8.712;2023-02-28T15:29:51;17.58;;;11.57;;
25351;SDS011;13304;48.464;8.712;2023-02-28T15:32:26;20.92;;;12.88;;
25351;SDS011;13304;48.464;8.712;2023-02-28T15:34:54;21.90;;;12.15;;
25351;SDS011;13304;48.464;8.712;2023-02-28T15:40:45;18.75;;;10.88;;
25351;SDS011;13304;48.464;8.712;2023-02-28T15:42:57;20.45;;;12.02;;
25351;SDS011;13304;48.464;8.712;2023-02-28T15:45:29;16.88;;;10.77;;
25351;SDS011;13304;48.464;8.712;2023-02-28T15:48:13;15.05;;;10.13;;
25351;SDS011;13304;48.464;8.712;2023-02-28T15:50:39;18.52;;;10.88;;
25351;SDS011;13304;48.464;8.712;2023-02-28T15:53:09;17.63;;;11.07;;
25351;SDS011;13304;48.464;8.712;2023-02-28T15:55:42;20.45;;;11.00;;
25351;SDS011;13304;48.464;8.712;2023-02-28T15:58:09;19.65;;;11.43;;
25351;SDS011;13304;48.464;8.712;2023-02-28T16:00:38;18.45;;;10.82;;
25351;SDS011;13304;48.464;8.712;2023-02-28T16:06:07;15.68;;;10.57;;
25351;SDS011;13304;48.464;8.712;2023-02-28T16:08:52;15.25;;;10.13;;
25351;SDS011;13304;48.464;8.712;2023-02-28T16:11:18;20.25;;;10.60;;
25351;SDS011;13304;48.464;8.712;2023-02-28T16:13:47;20.42;;;11.18;;
25351;SDS011;13304;48.464;8.712;2023-02-28T16:16:16;20.20;;;11.82;;
25351;SDS011;13304;48.464;8.712;2023-02-28T16:18:44;22.27;;;12.23;;
25351;SDS011;13304;48.464;8.712;2023-02-28T16:21:10;20.85;;;11.88;;
25351;SDS011;13304;48.464;8.712;2023-02-28T16:23:35;22.73;;;11.27;;
25351;SDS011;13304;48.464;8.712;2023-02-28T16:26:02;16.95;;;10.38;;
25351;SDS011;13304;48.464;8.712;2023-02-28T16:28:29;18.73;;;10.73;;
25351;SDS011;13304;48.464;8.712;2023-02-28T16:30:59;18.23;;;10.55;;
25351;SDS011;13304;48.464;8.712;2023-02-28T16:33:27;19.27;;;10.63;;
25351;SDS011;13304;48.464;8.712;2023-02-28T16:35:56;17.50;;;10.07;;
25351;SDS011;13304;48.464;8.712;2023-02-28T16:38:22;15.05;;;9.52;;
25351;SDS011;13304;48.464;8.712;2023-02-28T16:40:50;16.58;;;9.95;;
25351;SDS011;13304;48.464;8.712;2023-02-28T16:43:18;21.50;;;10.82;;
25351;SDS011;13304;48.464;8.712;2023-02-28T16:45:47;18.27;;;10.85;;
25351;SDS011;13304;48.464;8.712;2023-02-28T16:48:14;17.25;;;10.13;;
25351;SDS011;13304;48.464;8.712;2023-02-28T16:50:41;23.38;;;10.32;;
25351;SDS011;13304;48.464;8.712;2023-02-28T16:53:08;16.20;;;10.05;;
25351;SDS011;13304;48.464;8.712;2023-02-28T16:55:34;19.98;;;10.93;;
25351;SDS011;13304;48.464;8.712;2023-02-28T16:58:01;18.13;;;10.57;;
25351;SDS011;13304;48.464;8.712;2023-02-28T17:00:28;17.50;;;10.65;;
25351;SDS011;13304;48.464;8.712;2023-02-28T17:02:56;15.93;;;9.77;;
25351;SDS011;13304;48.464;8.712;2023-02-28T17:05:22;20.70;;;10.68;;
25351;SDS011;13304;48.464;8.712;2023-02-28T17:07:48;17.48;;;9.77;;
25351;SDS011;13304;48.464;8.712;2023-02-28T17:12:45;18.65;;;10.15;;
25351;SDS011;13304;48.464;8.712;2023-02-28T17:15:12;19.53;;;11.03;;
25351;SDS011;13304;48.464;8.712;2023-02-28T17:17:39;17.63;;;10.30;;
25351;SDS011;13304;48.464;8.712;2023-02-28T17:20:06;17.65;;;10.75;;
25351;SDS011;13304;48.464;8.712;2023-02-28T17:22:36;23.97;;;11.00;;
25351;SDS011;13304;48.464;8.712;2023-02-28T17:25:02;20.50;;;11.40;;
25351;SDS011;13304;48.464;8.712;2023-02-28T17:27:28;14.82;;;10.15;;
25351;SDS011;13304;48.464;8.712;2023-02-28T17:29:54;16.93;;;10.37;;
25351;SDS011;13304;48.464;8.712;2023-02-28T17:32:20;17.53;;;10.87;;
25351;SDS011;13304;48.464;8.712;2023-02-28T17:34:45;20.90;;;11.10;;
25351;SDS011;13304;48.464;8.712;2023-02-28T17:37:11;19.80;;;10.10;;
25351;SDS011;13304;48.464;8.712;2023-02-28T17:39:37;18.37;;;11.07;;